Terminal Aerodrome Forecast
Issued by NWS Omaha/Valley, NE

Home | Current Version | Previous Version | Graphics & Text | Print | Product List | Glossary On
Versions: 1 2 3 4 5 6 7 8 9 10 11 12 13 14 15 16 17 18 19 20 21 22 23 24 25 26 27 28 29 30 31 32 33 34
000
FTUS43 KOAX 151729
TAFOFK
TAF
KOFK 151729Z 1518/1618 17006KT P6SM BKN100
     FM160000 15005KT P6SM OVC040
      TEMPO 1600/1603 6SM -FZRA BR OVC025
     FM160300 VRB03KT 4SM -FZRA BR OVC025
     FM160600 VRB03KT 2SM -FZRA BR OVC015=

USA.gov is the U.S. government's official web portal to all federal, state and local government web resources and services.